Time;durP1;ratioP1;P1;durP2;ratioP2;P2;SDS_P1;SDS_P2;PMS_P1;PMS_P2;Temp;Humidity;BMP_temperature;BMP_pressure;BME280_temperature;BME280_humidity;BME280_pressure;Samples;Min_cycle;Max_cycle;Signal;HPM_P1;HPM_P2
2023/06/11 00:01:43;;;;;;;7.97;4.10;;;;;;;9.55;61.11;102581.41;10296636;28;20051;-85
2023/06/11 00:06:45;;;;;;;10.38;4.20;;;;;;;9.41;61.42;102580.72;10309156;28;20054;-84
2023/06/11 00:11:47;;;;;;;7.68;4.30;;;;;;;9.32;60.94;102573.81;10321348;28;20046;-84
2023/06/11 00:16:50;;;;;;;7.15;3.63;;;;;;;9.21;62.62;102582.81;10279081;28;20067;-84
2023/06/11 00:21:52;;;;;;;6.55;3.63;;;;;;;9.12;63.13;102575.91;10317396;28;20509;-85
2023/06/11 00:26:55;;;;;;;5.43;3.08;;;;;;;9.08;62.84;102589.22;10326481;28;20039;-84
2023/06/11 00:31:57;;;;;;;6.00;3.30;;;;;;;9.20;62.44;102594.78;10316031;28;20441;-84
2023/06/11 00:36:59;;;;;;;6.55;3.60;;;;;;;9.24;62.49;102599.63;10289330;28;20051;-85
2023/06/11 00:42:01;;;;;;;5.50;3.50;;;;;;;9.22;62.05;102596.28;10287522;28;20046;-84
2023/06/11 00:47:04;;;;;;;4.78;3.15;;;;;;;9.27;61.60;102596.44;10286251;29;20043;-84
2023/06/11 00:52:09;;;;;;;6.18;3.40;;;;;;;9.41;61.46;102597.16;10272370;28;20521;-84
2023/06/11 00:57:12;;;;;;;5.30;3.17;;;;;;;9.48;61.32;102597.06;10297178;28;20047;-84
2023/06/11 01:02:21;;;;;;;4.63;3.35;;;;;;;9.52;61.15;102609.25;10298521;28;20068;-84
2023/06/11 01:07:30;;;;;;;5.68;3.35;;;;;;;9.47;62.06;102600.88;10287632;28;20035;-84
2023/06/11 01:12:33;;;;;;;7.15;3.10;;;;;;;9.38;61.75;102603.09;10247975;28;20050;-84
2023/06/11 01:17:56;;;;;;;5.82;3.28;;;;;;;9.43;61.54;102611.47;10305613;28;20067;-84
2023/06/11 01:23:24;;;;;;;6.88;4.10;;;;;;;9.39;63.29;102617.63;10285234;28;20043;-84
2023/06/11 01:28:31;;;;;;;9.68;3.80;;;;;;;9.36;64.73;102616.13;10301873;28;20050;-85
2023/06/11 01:33:35;;;;;;;8.63;4.15;;;;;;;9.31;65.07;102616.81;10286140;28;20050;-84
2023/06/11 01:38:41;;;;;;;4.50;3.10;;;;;;;9.38;65.73;102621.44;10299271;28;20077;-85
2023/06/11 01:43:47;;;;;;;6.68;4.07;;;;;;;9.33;65.65;102622.91;10257072;28;20039;-84
2023/06/11 01:48:50;;;;;;;7.05;3.33;;;;;;;9.46;67.10;102626.59;10290515;28;20050;-84
2023/06/11 01:53:54;;;;;;;8.43;3.40;;;;;;;9.71;68.21;102630.13;10306643;28;20066;-84
2023/06/11 01:58:57;;;;;;;7.63;4.05;;;;;;;10.01;69.12;102635.72;10318880;28;20051;-85
2023/06/11 02:04:00;;;;;;;6.25;3.53;;;;;;;10.44;67.29;102634.81;10290122;28;20046;-85
2023/06/11 02:09:02;;;;;;;6.40;3.70;;;;;;;10.90;65.26;102633.28;10300497;28;20054;-84
2023/06/11 02:14:04;;;;;;;7.22;3.65;;;;;;;11.30;64.04;102639.84;10304797;28;20042;-85
2023/06/11 02:19:07;;;;;;;6.75;3.80;;;;;;;11.64;62.83;102640.13;10310839;28;20082;-85
2023/06/11 02:24:09;;;;;;;6.63;3.22;;;;;;;12.08;61.33;102638.66;10270526;28;20039;-85
2023/06/11 02:29:12;;;;;;;7.32;4.00;;;;;;;12.02;61.06;102642.38;10305806;28;20077;-85
2023/06/11 02:34:14;;;;;;;5.82;4.00;;;;;;;12.15;60.75;102644.88;10302779;28;20043;-85
2023/06/11 02:39:16;;;;;;;5.25;3.90;;;;;;;12.64;60.86;102654.38;10269488;28;20569;-85
2023/06/11 02:44:19;;;;;;;8.90;3.60;;;;;;;13.08;57.92;102659.34;10300347;28;20522;-85
2023/06/11 02:49:22;;;;;;;8.05;4.65;;;;;;;12.95;58.35;102653.03;10282333;28;20042;-86
2023/06/11 02:54:24;;;;;;;4.93;3.85;;;;;;;12.98;56.39;102658.06;10304228;28;20049;-85
2023/06/11 02:59:26;;;;;;;8.70;4.07;;;;;;;13.11;57.05;102667.09;10302286;28;20059;-85
2023/06/11 03:04:28;;;;;;;9.18;4.38;;;;;;;13.68;53.29;102666.97;10304895;28;20544;-85
2023/06/11 03:09:31;;;;;;;8.82;4.32;;;;;;;14.22;51.40;102667.19;10320259;28;20066;-85
2023/06/11 03:14:33;;;;;;;7.13;4.97;;;;;;;14.57;49.78;102664.88;10284393;28;20047;-85
2023/06/11 03:19:35;;;;;;;7.80;4.78;;;;;;;14.68;49.95;102668.59;10264495;29;20426;-85
2023/06/11 03:24:37;;;;;;;7.78;4.65;;;;;;;14.89;48.59;102664.13;10264251;28;20046;-84
2023/06/11 03:29:52;;;;;;;8.40;4.97;;;;;;;15.22;47.90;102668.59;10290088;28;20497;-84
2023/06/11 03:34:55;;;;;;;10.98;4.45;;;;;;;15.63;47.51;102670.66;10287463;28;20057;-85
2023/06/11 03:40:00;;;;;;;10.55;5.35;;;;;;;15.84;46.98;102677.16;10302943;28;20421;-85
2023/06/11 03:45:02;;;;;;;10.88;4.57;;;;;;;15.88;47.66;102669.97;10281079;28;20390;-84
2023/06/11 03:50:07;;;;;;;9.35;5.03;;;;;;;15.95;48.10;102673.31;10266210;28;20518;-85
2023/06/11 03:55:10;;;;;;;9.82;4.78;;;;;;;16.18;47.96;102669.31;10293080;28;20390;-84
2023/06/11 04:00:13;;;;;;;9.90;5.13;;;;;;;16.90;46.68;102675.97;10325469;28;20810;-84
2023/06/11 04:05:18;;;;;;;6.38;4.07;;;;;;;17.16;45.13;102679.59;10297371;28;20058;-84
2023/06/11 04:10:28;;;;;;;8.13;3.80;;;;;;;17.57;43.34;102668.53;10276319;28;20043;-85
2023/06/11 04:15:31;;;;;;;6.43;4.03;;;;;;;17.61;43.38;102664.91;10306413;28;20051;-85
2023/06/11 04:20:37;;;;;;;6.80;3.65;;;;;;;17.76;42.37;102670.47;10294653;28;20417;-85
2023/06/11 04:25:39;;;;;;;7.63;3.47;;;;;;;18.13;41.81;102676.78;10304391;28;20409;-84
2023/06/11 04:30:43;;;;;;;6.75;2.83;;;;;;;18.53;40.95;102670.22;10310278;28;20047;-85
2023/06/11 04:35:47;;;;;;;8.88;3.63;;;;;;;18.68;41.49;102668.22;10307467;28;20047;-85
2023/06/11 04:40:49;;;;;;;4.47;3.40;;;;;;;18.85;40.67;102672.56;10280999;29;20529;-85
2023/06/11 04:45:56;;;;;;;4.28;3.40;;;;;;;18.82;40.62;102668.44;10290715;28;20059;-85
2023/06/11 04:51:02;;;;;;;8.13;3.58;;;;;;;19.15;40.22;102677.13;10278470;28;20553;-84
2023/06/11 04:56:10;;;;;;;10.15;4.15;;;;;;;19.42;40.00;102683.00;10273304;28;20066;-83
2023/06/11 05:01:15;;;;;;;5.40;3.22;;;;;;;19.78;38.74;102688.28;10301476;28;20046;-83
2023/06/11 05:06:21;;;;;;;5.70;3.08;;;;;;;19.50;39.13;102690.75;10308497;28;20055;-83
2023/06/11 05:11:24;;;;;;;5.15;2.97;;;;;;;19.21;38.95;102690.69;10291657;28;20039;-83
2023/06/11 05:16:28;;;;;;;5.10;3.45;;;;;;;19.48;38.68;102683.81;10308494;28;20054;-84
2023/06/11 05:21:31;;;;;;;4.78;3.03;;;;;;;20.20;37.33;102681.16;10289177;28;20051;-84
2023/06/11 05:26:34;;;;;;;6.80;3.13;;;;;;;19.88;36.76;102679.81;10306042;28;20054;-84
2023/06/11 05:31:39;;;;;;;7.38;3.65;;;;;;;20.29;36.69;102679.34;10321190;28;20062;-84
2023/06/11 05:36:45;;;;;;;3.40;2.65;;;;;;;20.49;35.85;102673.59;10300050;28;20047;-83
2023/06/11 05:41:48;;;;;;;5.28;2.75;;;;;;;20.07;36.06;102677.94;10288791;28;20516;-84
2023/06/11 05:46:53;;;;;;;3.95;2.60;;;;;;;20.03;36.39;102668.50;10292762;28;20513;-84
2023/06/11 05:51:57;;;;;;;3.60;2.35;;;;;;;20.88;35.08;102666.91;10306023;28;20045;-84
2023/06/11 05:56:59;;;;;;;5.97;2.55;;;;;;;20.59;34.64;102661.44;10302202;28;20065;-83
2023/06/11 06:02:02;;;;;;;3.95;2.55;;;;;;;20.25;35.34;102661.56;10260369;28;20042;-83
2023/06/11 06:07:06;;;;;;;4.60;2.65;;;;;;;20.59;35.08;102667.00;10289295;28;20055;-83
2023/06/11 06:12:09;;;;;;;5.03;2.47;;;;;;;21.07;33.87;102668.53;10289685;28;20047;-83
2023/06/11 06:17:11;;;;;;;6.85;2.75;;;;;;;21.42;33.17;102663.53;10298109;28;20062;-83
2023/06/11 06:22:18;;;;;;;4.18;2.78;;;;;;;20.86;33.98;102666.38;10296350;28;20125;-82
2023/06/11 06:27:21;;;;;;;3.15;2.70;;;;;;;21.21;33.29;102663.03;10278878;28;20054;-83
2023/06/11 06:32:24;;;;;;;4.05;2.38;;;;;;;20.95;33.93;102668.16;10301193;28;20056;-82
2023/06/11 06:37:27;;;;;;;2.63;2.05;;;;;;;19.88;34.27;102674.25;10296105;28;20402;-83
2023/06/11 06:42:30;;;;;;;2.67;2.08;;;;;;;19.36;34.13;102684.19;10300814;28;20039;-79
2023/06/11 06:47:36;;;;;;;3.10;1.92;;;;;;;20.78;33.66;102670.66;10299597;28;20057;-80
2023/06/11 06:52:39;;;;;;;3.40;2.45;;;;;;;21.99;32.46;102664.16;10303847;28;20046;-79
2023/06/11 06:57:41;;;;;;;3.83;2.22;;;;;;;22.72;31.73;102667.97;10296495;28;20054;-79
2023/06/11 07:02:45;;;;;;;2.72;1.83;;;;;;;22.84;30.24;102669.09;10286010;28;20140;-77
2023/06/11 07:07:49;;;;;;;2.20;1.65;;;;;;;23.23;28.19;102670.41;10279705;28;20077;-80
2023/06/11 07:12:51;;;;;;;2.05;1.75;;;;;;;22.77;29.35;102665.06;10299258;28;20035;-86
2023/06/11 07:17:54;;;;;;;2.00;1.75;;;;;;;21.88;28.47;102668.31;10296738;28;20086;-82
2023/06/11 07:23:01;;;;;;;2.63;1.90;;;;;;;22.18;29.13;102664.09;10279750;28;20043;-83
2023/06/11 07:28:05;;;;;;;2.00;1.80;;;;;;;22.06;30.35;102661.81;10302450;28;20039;-85
2023/06/11 07:33:09;;;;;;;2.00;1.77;;;;;;;22.14;29.19;102663.06;10283957;28;20043;-80
2023/06/11 07:38:12;;;;;;;2.75;1.90;;;;;;;22.66;28.88;102658.88;10293072;28;20043;-81
2023/06/11 07:43:14;;;;;;;2.08;1.75;;;;;;;23.41;27.27;102654.56;10308580;28;20509;-78
2023/06/11 07:48:18;;;;;;;2.35;1.90;;;;;;;23.60;26.86;102649.59;10292074;28;20046;-80
2023/06/11 07:53:22;;;;;;;3.37;1.80;;;;;;;23.43;26.61;102646.69;10325156;28;20054;-83
2023/06/11 07:58:24;;;;;;;3.03;1.83;;;;;;;23.19;26.76;102646.16;10297418;28;20077;-83
2023/06/11 08:03:27;;;;;;;5.80;2.03;;;;;;;23.41;26.76;102654.56;10300740;28;20047;-79
2023/06/11 08:08:29;;;;;;;2.92;2.00;;;;;;;22.76;27.45;102643.81;10325526;28;20051;-87
2023/06/11 08:13:32;;;;;;;2.88;1.90;;;;;;;22.22;29.18;102642.78;10324711;28;20058;-81
2023/06/11 08:18:35;;;;;;;3.17;2.28;;;;;;;22.69;29.28;102644.22;10310398;28;20043;-79
2023/06/11 08:23:38;;;;;;;2.58;1.90;;;;;;;22.94;29.60;102642.03;10298820;28;20038;-80
2023/06/11 08:28:40;;;;;;;5.10;1.90;;;;;;;23.71;29.36;102639.78;10299253;28;20414;-86
2023/06/11 08:33:43;;;;;;;4.70;2.47;;;;;;;22.78;29.55;102627.53;10317356;28;20046;-86
2023/06/11 08:38:45;;;;;;;3.92;2.60;;;;;;;23.09;28.37;102638.84;10289847;28;20429;-84
2023/06/11 08:43:47;;;;;;;3.15;2.35;;;;;;;23.12;28.51;102635.41;10311798;28;20159;-82
2023/06/11 08:48:57;;;;;;;3.42;2.20;;;;;;;22.89;28.38;102631.75;10299047;28;20051;-82
2023/06/11 08:54:00;;;;;;;5.72;2.90;;;;;;;21.78;29.92;102629.34;10317165;28;20077;-79
2023/06/11 08:59:02;;;;;;;2.65;2.17;;;;;;;20.41;30.98;102633.22;10293222;28;20062;-79
2023/06/11 09:04:05;;;;;;;4.28;2.22;;;;;;;21.24;30.19;102609.38;10303722;28;20066;-79
2023/06/11 09:09:11;;;;;;;3.90;2.17;;;;;;;21.25;30.89;102601.84;10320333;28;20540;-78
2023/06/11 09:14:14;;;;;;;4.72;2.38;;;;;;;22.10;30.46;102601.34;10299922;28;20039;-79
2023/06/11 09:19:20;;;;;;;4.65;2.33;;;;;;;22.02;29.68;102593.63;10324397;28;20409;-80
2023/06/11 09:24:23;;;;;;;4.17;2.30;;;;;;;22.41;30.62;102592.28;10287601;28;20043;-81
2023/06/11 09:29:27;;;;;;;3.58;2.50;;;;;;;20.82;31.79;102587.16;10321949;28;20061;-80
2023/06/11 09:34:29;;;;;;;5.18;3.20;;;;;;;19.96;32.24;102594.75;10296941;28;20552;-82
2023/06/11 09:39:32;;;;;;;3.90;2.65;;;;;;;19.24;33.46;102594.63;10318339;28;20421;-81
2023/06/11 09:44:34;;;;;;;4.00;2.75;;;;;;;19.42;33.90;102577.19;10272157;28;20054;-82
2023/06/11 09:49:37;;;;;;;4.22;2.53;;;;;;;19.22;33.82;102582.97;10322930;28;20054;-81
2023/06/11 09:54:41;;;;;;;3.30;2.15;;;;;;;19.48;33.49;102575.22;10295391;28;20516;-80
2023/06/11 10:00:12;;;;;;;3.30;2.50;;;;;;;18.97;33.95;102570.94;10262119;28;20038;-81
2023/06/11 10:05:15;;;;;;;4.57;2.78;;;;;;;18.68;33.75;102561.72;10274615;28;20506;-80
2023/06/11 10:10:20;;;;;;;5.05;2.60;;;;;;;18.91;34.26;102557.34;10289993;28;20047;-81
2023/06/11 10:15:23;;;;;;;5.47;2.55;;;;;;;18.93;34.21;102555.97;10289197;28;20126;-82
2023/06/11 10:20:29;;;;;;;5.03;2.30;;;;;;;18.73;34.08;102558.88;10284598;28;20043;-82
2023/06/11 10:25:39;;;;;;;3.30;2.33;;;;;;;18.46;33.85;102561.28;10288669;28;20066;-81
2023/06/11 10:30:52;;;;;;;4.82;2.70;;;;;;;18.41;34.35;102545.47;10294056;28;20097;-81
2023/06/11 10:36:00;;;;;;;5.15;2.83;;;;;;;18.45;34.38;102531.81;10312621;28;20046;-84
2023/06/11 10:41:05;;;;;;;4.68;2.60;;;;;;;18.43;34.62;102534.06;10321289;28;20482;-82
2023/06/11 10:46:11;;;;;;;6.22;2.95;;;;;;;18.68;34.36;102528.34;10287955;28;20518;-82
2023/06/11 10:51:14;;;;;;;5.03;2.50;;;;;;;18.72;34.44;102534.97;10284139;28;20036;-83
2023/06/11 10:56:20;;;;;;;2.85;2.13;;;;;;;18.86;33.97;102526.81;10294859;28;20058;-81
2023/06/11 11:01:23;;;;;;;3.97;2.08;;;;;;;18.60;33.35;102531.72;10293133;28;20051;-84
2023/06/11 11:06:26;;;;;;;2.63;2.10;;;;;;;18.19;34.37;102525.56;10316277;28;20055;-84
2023/06/11 11:11:28;;;;;;;4.32;2.15;;;;;;;18.67;34.10;102510.00;10304210;28;20046;-85
2023/06/11 11:16:31;;;;;;;2.92;2.63;;;;;;;18.93;34.01;102508.66;10292647;28;20054;-83
2023/06/11 11:21:33;;;;;;;3.80;2.50;;;;;;;18.97;33.71;102506.13;10314634;28;20046;-87
2023/06/11 11:26:42;;;;;;;5.22;3.28;;;;;;;18.82;33.45;102506.25;10301256;28;20065;-85
2023/06/11 11:31:45;;;;;;;4.25;2.42;;;;;;;18.72;33.30;102496.03;10293327;28;20039;-83
2023/06/11 11:36:48;;;;;;;5.68;3.33;;;;;;;18.26;34.10;102490.81;10294949;28;20043;-84
2023/06/11 11:41:51;;;;;;;6.75;2.90;;;;;;;18.49;33.78;102483.69;10300790;28;20425;-81
2023/06/11 11:46:57;;;;;;;3.75;2.30;;;;;;;18.56;33.42;102484.19;10293217;28;20135;-80
2023/06/11 11:52:00;;;;;;;3.45;2.40;;;;;;;18.59;32.95;102482.78;10316210;28;20127;-83
2023/06/11 11:57:06;;;;;;;4.18;2.30;;;;;;;18.68;33.39;102469.94;10315856;28;20058;-83
2023/06/11 12:02:09;;;;;;;3.60;2.55;;;;;;;18.73;32.66;102478.22;10300899;28;20042;-85
2023/06/11 12:07:13;;;;;;;4.28;2.17;;;;;;;18.35;33.17;102464.06;10318596;28;20057;-86
2023/06/11 12:12:16;;;;;;;3.05;2.17;;;;;;;18.23;32.68;102469.16;10315303;28;20057;-79
2023/06/11 12:17:18;;;;;;;3.80;1.73;;;;;;;18.49;32.92;102458.66;10292528;28;20070;-81
2023/06/11 12:22:20;;;;;;;5.75;2.20;;;;;;;18.52;32.59;102463.66;10310026;28;20075;-81
2023/06/11 12:27:23;;;;;;;2.83;1.98;;;;;;;18.43;32.52;102459.00;10293441;28;20525;-82
2023/06/11 12:32:25;;;;;;;5.68;2.45;;;;;;;18.43;33.34;102456.22;10306452;28;20058;-83
2023/06/11 12:37:28;;;;;;;3.63;2.45;;;;;;;18.58;32.95;102456.13;10292044;28;20047;-78
2023/06/11 12:42:32;;;;;;;4.03;2.55;;;;;;;18.54;32.90;102447.50;10307018;28;20039;-80
2023/06/11 12:47:34;;;;;;;3.33;2.20;;;;;;;18.67;32.82;102437.69;10309776;28;20055;-78
2023/06/11 12:52:39;;;;;;;3.70;2.70;;;;;;;18.86;32.59;102443.34;10300945;28;20065;-84
2023/06/11 12:57:41;;;;;;;5.25;2.45;;;;;;;18.88;32.30;102432.75;10297869;28;20050;-84
2023/06/11 13:02:43;;;;;;;2.42;2.00;;;;;;;18.61;32.28;102434.09;10320436;28;20509;-83
2023/06/11 13:07:47;;;;;;;2.92;2.30;;;;;;;18.63;32.21;102428.28;10279159;29;20106;-83
2023/06/11 13:12:51;;;;;;;2.50;2.05;;;;;;;18.63;32.30;102429.13;10311622;28;20051;-80
2023/06/11 13:17:53;;;;;;;4.63;2.42;;;;;;;18.40;32.75;102415.94;10306749;28;20051;-83
2023/06/11 13:22:55;;;;;;;3.28;2.20;;;;;;;18.47;33.42;102412.81;10299251;28;20038;-80
2023/06/11 13:27:58;;;;;;;3.67;2.63;;;;;;;18.60;32.34;102410.22;10309621;28;20043;-82
2023/06/11 13:33:00;;;;;;;2.88;2.17;;;;;;;18.75;32.04;102412.06;10299061;28;20050;-80
2023/06/11 13:38:02;;;;;;;4.90;2.50;;;;;;;18.88;31.61;102408.56;10307473;28;20046;-79
2023/06/11 13:43:04;;;;;;;5.68;2.47;;;;;;;18.50;31.27;102409.47;10302435;28;20054;-78
2023/06/11 13:48:13;;;;;;;6.03;2.40;;;;;;;18.81;30.50;102410.88;10310523;28;20047;-79
2023/06/11 13:53:17;;;;;;;6.60;2.55;;;;;;;18.89;30.68;102401.88;10298105;28;20039;-79
2023/06/11 13:58:22;;;;;;;3.90;2.03;;;;;;;18.82;28.94;102395.84;10319005;28;20039;-81
2023/06/11 14:03:24;;;;;;;2.67;2.10;;;;;;;18.92;29.86;102381.00;10303558;28;20046;-80
2023/06/11 14:08:26;;;;;;;6.55;3.42;;;;;;;18.98;29.16;102385.38;10291473;28;20062;-77
2023/06/11 14:13:28;;;;;;;5.25;2.40;;;;;;;18.72;29.49;102378.41;10308218;28;20047;-76
2023/06/11 14:18:31;;;;;;;5.68;3.03;;;;;;;18.96;28.56;102371.75;10308673;28;20050;-75
2023/06/11 14:23:33;;;;;;;3.70;2.22;;;;;;;18.91;28.71;102371.78;10296294;28;20042;-76
2023/06/11 14:28:35;;;;;;;3.92;2.45;;;;;;;19.06;28.27;102364.41;10293549;28;20528;-77
2023/06/11 14:33:37;;;;;;;3.35;2.30;;;;;;;19.13;28.00;102362.94;10310371;28;20043;-77
2023/06/11 14:38:40;;;;;;;3.90;2.20;;;;;;;19.27;27.71;102365.81;10303804;28;20042;-77
2023/06/11 14:43:42;;;;;;;3.28;2.15;;;;;;;19.31;27.43;102364.09;10307922;28;20053;-79
2023/06/11 14:48:45;;;;;;;3.25;1.63;;;;;;;19.27;26.35;102357.47;10316869;28;20035;-77
2023/06/11 14:53:47;;;;;;;2.53;1.58;;;;;;;19.43;26.14;102350.56;10307626;28;20047;-79
2023/06/11 14:58:49;;;;;;;3.60;1.90;;;;;;;19.42;26.07;102348.06;10287771;28;20555;-78
2023/06/11 15:03:51;;;;;;;2.80;2.03;;;;;;;19.40;25.80;102337.25;10307599;28;20444;-79
2023/06/11 15:08:54;;;;;;;3.53;2.05;;;;;;;19.33;26.26;102338.75;10297820;28;20095;-82
2023/06/11 15:13:56;;;;;;;2.20;1.50;;;;;;;19.25;25.20;102343.00;10306330;28;20039;-84
2023/06/11 15:18:58;;;;;;;1.88;1.45;;;;;;;19.25;24.67;102343.00;10305508;28;20051;-84
2023/06/11 15:24:00;;;;;;;3.47;2.05;;;;;;;19.35;25.09;102325.34;10310242;28;20038;-83
2023/06/11 15:29:03;;;;;;;4.78;2.83;;;;;;;19.33;25.36;102322.88;10293891;28;20041;-82
2023/06/11 15:34:05;;;;;;;2.88;1.88;;;;;;;19.37;25.41;102323.91;10288936;28;20168;-85
2023/06/11 15:39:07;;;;;;;3.05;1.90;;;;;;;19.46;25.02;102329.66;10304238;28;20161;-83
2023/06/11 15:44:10;;;;;;;4.40;2.28;;;;;;;19.28;25.25;102323.78;10300547;28;20042;-83
2023/06/11 15:49:12;;;;;;;1.95;1.48;;;;;;;18.91;22.79;102318.13;10233533;28;20047;-81
2023/06/11 15:54:14;;;;;;;1.73;1.33;;;;;;;18.63;23.72;102308.72;10313916;28;20043;-78
2023/06/11 15:59:16;;;;;;;2.70;1.52;;;;;;;18.76;23.61;102312.75;10319582;28;20046;-77
2023/06/11 16:04:19;;;;;;;2.45;1.60;;;;;;;18.81;23.44;102309.91;10325767;28;20246;-79
2023/06/11 16:09:21;;;;;;;3.28;2.22;;;;;;;18.73;24.05;102296.63;10314134;28;20047;-79
2023/06/11 16:14:23;;;;;;;2.30;1.83;;;;;;;18.72;24.33;102300.53;10323730;28;20062;-80
2023/06/11 16:19:25;;;;;;;2.78;1.60;;;;;;;18.88;24.64;102296.47;10310846;28;20143;-82
2023/06/11 16:24:28;;;;;;;4.10;1.65;;;;;;;18.68;28.40;102289.19;10303271;28;20141;-89
2023/06/11 16:29:30;;;;;;;3.92;1.77;;;;;;;18.43;31.85;102281.13;10323052;28;20394;-86
2023/06/11 16:34:32;;;;;;;5.45;1.88;;;;;;;18.27;33.12;102283.22;10323884;28;20054;-83
2023/06/11 16:39:34;;;;;;;4.43;1.80;;;;;;;18.08;34.44;102297.00;10319809;28;20050;-79
2023/06/11 16:44:37;;;;;;;3.97;1.98;;;;;;;18.00;35.35;102289.28;10321185;28;20665;-79
2023/06/11 16:49:39;;;;;;;5.07;2.17;;;;;;;18.07;36.10;102278.69;10307127;28;20053;-79
2023/06/11 16:54:41;;;;;;;2.53;1.52;;;;;;;17.87;36.26;102289.94;10318160;28;20045;-81
2023/06/11 16:59:43;;;;;;;2.83;1.77;;;;;;;17.73;36.33;102287.84;10299394;28;20051;-79
2023/06/11 17:04:46;;;;;;;2.03;1.58;;;;;;;17.83;35.72;102288.88;10295386;28;20035;-79
2023/06/11 17:09:49;;;;;;;1.92;1.27;;;;;;;17.62;36.37;102293.72;10303329;28;20038;-79
2023/06/11 17:14:51;;;;;;;3.92;1.77;;;;;;;17.51;35.90;102292.13;10317989;28;20391;-77
2023/06/11 17:19:53;;;;;;;4.13;1.75;;;;;;;17.29;36.65;102292.56;10295965;28;20425;-78
2023/06/11 17:24:55;;;;;;;1.83;1.52;;;;;;;17.17;36.74;102290.09;10321582;28;20417;-84
2023/06/11 17:29:57;;;;;;;3.38;1.30;;;;;;;17.27;36.56;102294.78;10323468;28;20039;-86
2023/06/11 17:35:00;;;;;;;4.28;1.45;;;;;;;17.31;35.85;102293.09;10328531;28;20043;-88
2023/06/11 17:40:04;;;;;;;2.50;1.70;;;;;;;17.29;36.06;102296.16;10263505;28;20051;-83
2023/06/11 17:45:08;;;;;;;2.38;1.23;;;;;;;17.12;36.20;102296.50;10320883;28;20100;-84
2023/06/11 17:50:10;;;;;;;2.95;1.25;;;;;;;17.04;36.62;102294.34;10314678;28;20049;-77
2023/06/11 17:55:13;;;;;;;2.00;1.48;;;;;;;17.04;36.84;102302.66;10297793;28;20039;-77
2023/06/11 18:00:16;;;;;;;3.80;1.40;;;;;;;16.91;37.25;102292.19;10317282;28;20062;-82
2023/06/11 18:05:18;;;;;;;2.33;1.70;;;;;;;16.94;37.53;102294.38;10310169;28;20043;-82
2023/06/11 18:10:20;;;;;;;5.85;1.95;;;;;;;16.98;37.89;102294.63;10315979;28;20062;-83
2023/06/11 18:15:23;;;;;;;3.38;1.85;;;;;;;16.92;38.25;102299.38;10307741;28;20699;-81
2023/06/11 18:20:27;;;;;;;4.10;2.05;;;;;;;16.88;38.72;102292.75;10299584;28;20051;-82
2023/06/11 18:25:29;;;;;;;4.80;2.00;;;;;;;16.78;38.84;102290.00;10302655;28;20042;-84
2023/06/11 18:30:31;;;;;;;5.72;1.88;;;;;;;16.74;39.52;102283.38;10309553;28;20536;-79
2023/06/11 18:35:34;;;;;;;6.85;1.70;;;;;;;16.61;39.35;102289.47;10292679;28;20043;-78
2023/06/11 18:40:36;;;;;;;5.25;2.75;;;;;;;16.52;40.44;102292.00;10300849;28;20039;-79
2023/06/11 18:45:38;;;;;;;5.93;2.75;;;;;;;16.52;40.57;102290.06;10319888;28;20058;-79
2023/06/11 18:50:41;;;;;;;4.10;2.03;;;;;;;16.48;40.21;102291.72;10317258;28;20042;-79
2023/06/11 18:55:43;;;;;;;6.05;2.70;;;;;;;16.37;40.56;102284.56;10318332;28;20039;-79
2023/06/11 19:00:45;;;;;;;8.07;3.35;;;;;;;16.27;41.06;102288.16;10280197;28;20051;-78
2023/06/11 19:05:49;;;;;;;9.82;3.92;;;;;;;16.26;41.98;102296.75;10320207;28;20413;-81
2023/06/11 19:10:51;;;;;;;12.13;4.95;;;;;;;16.18;43.75;102291.78;10277426;29;20039;-79
2023/06/11 19:15:54;;;;;;;8.43;4.30;;;;;;;16.15;43.77;102295.13;10313912;28;20047;-79
2023/06/11 19:20:56;;;;;;;18.50;5.95;;;;;;;16.07;44.80;102306.75;10298550;28;20414;-79
2023/06/11 19:25:58;;;;;;;14.43;5.05;;;;;;;16.14;45.08;102298.97;10325121;28;20035;-78
2023/06/11 19:31:01;;;;;;;10.75;5.55;;;;;;;16.09;44.95;102313.66;10327377;28;20057;-78
2023/06/11 19:36:03;;;;;;;14.80;6.13;;;;;;;15.95;44.56;102315.31;10320671;28;20046;-83
2023/06/11 19:41:06;;;;;;;11.10;4.47;;;;;;;15.98;44.50;102310.09;10308193;28;20046;-79
2023/06/11 19:46:08;;;;;;;14.30;4.50;;;;;;;16.26;43.70;102305.88;10324133;28;20042;-79
2023/06/11 19:51:10;;;;;;;11.73;5.35;;;;;;;16.22;44.47;102309.50;10319101;28;20062;-78
2023/06/11 19:56:16;;;;;;;10.50;5.65;;;;;;;15.76;44.56;102312.25;10319838;28;20426;-77
2023/06/11 20:01:19;;;;;;;11.13;4.90;;;;;;;15.50;45.00;102314.13;10244326;28;20431;-77
2023/06/11 20:06:21;;;;;;;8.10;3.50;;;;;;;15.21;45.29;102313.78;10238994;29;20031;-76
2023/06/11 20:11:23;;;;;;;7.88;4.38;;;;;;;14.99;45.96;102307.63;10230074;29;20048;-75
2023/06/11 20:16:26;;;;;;;10.10;4.07;;;;;;;14.88;47.10;102306.72;10243339;29;20055;-77
2023/06/11 20:21:28;;;;;;;10.90;4.78;;;;;;;15.54;46.57;102301.41;10247144;29;20051;-78
2023/06/11 20:26:32;;;;;;;10.18;4.22;;;;;;;16.01;45.02;102303.16;10251163;29;20051;-78
2023/06/11 20:31:34;;;;;;;7.18;3.65;;;;;;;15.95;44.71;102304.25;10243759;29;20067;-78
2023/06/11 20:36:37;;;;;;;11.30;3.50;;;;;;;15.72;45.22;102305.63;10246330;29;20059;-77
2023/06/11 20:41:39;;;;;;;10.68;3.60;;;;;;;15.98;44.72;102301.78;10245624;29;20055;-78
2023/06/11 20:46:41;;;;;;;11.65;3.50;;;;;;;16.17;44.66;102312.28;10276873;29;20506;-77
2023/06/11 20:51:43;;;;;;;4.80;3.10;;;;;;;16.14;44.51;102315.59;10284569;28;20042;-79
2023/06/11 20:56:46;;;;;;;9.05;4.20;;;;;;;15.97;44.79;102319.50;10280333;29;20063;-78
2023/06/11 21:01:48;;;;;;;6.47;3.10;;;;;;;15.73;44.67;102318.34;10274658;29;20047;-75
2023/06/11 21:06:50;;;;;;;6.20;3.88;;;;;;;15.65;46.08;102319.75;10281067;29;20039;-79
2023/06/11 21:11:55;;;;;;;6.72;3.53;;;;;;;15.56;46.42;102320.50;10260717;29;20054;-75
2023/06/11 21:16:58;;;;;;;7.65;3.72;;;;;;;15.93;45.81;102325.84;10282637;29;20062;-74
2023/06/11 21:22:00;;;;;;;9.40;3.90;;;;;;;15.92;45.91;102325.00;10274456;29;20065;-75
2023/06/11 21:27:03;;;;;;;6.93;3.08;;;;;;;15.58;45.69;102323.81;10283819;29;20128;-75
2023/06/11 21:32:05;;;;;;;7.05;2.83;;;;;;;15.82;45.49;102324.19;10282859;29;20038;-76
2023/06/11 21:37:07;;;;;;;6.80;3.60;;;;;;;15.77;45.10;102325.00;10282928;28;20046;-75
2023/06/11 21:42:10;;;;;;;10.07;3.75;;;;;;;15.28;45.38;102321.84;10269280;29;20057;-74
2023/06/11 21:47:12;;;;;;;12.00;3.50;;;;;;;14.91;46.11;102328.28;10269740;29;20047;-74
2023/06/11 21:52:21;;;;;;;9.65;4.25;;;;;;;15.31;45.12;102333.19;10282328;29;20053;-74
2023/06/11 21:57:23;;;;;;;8.85;3.10;;;;;;;15.50;43.63;102330.75;10281977;28;20058;-74
2023/06/11 22:02:25;;;;;;;6.35;2.80;;;;;;;15.50;42.74;102330.75;10299716;28;20070;-74
2023/06/11 22:07:28;;;;;;;6.18;2.80;;;;;;;15.63;43.05;102323.88;10281792;29;20047;-75
2023/06/11 22:12:38;;;;;;;4.57;2.60;;;;;;;15.61;41.92;102326.06;10282957;29;20056;-75
2023/06/11 22:17:40;;;;;;;6.82;2.70;;;;;;;15.55;41.81;102329.91;10270272;29;20652;-75
2023/06/11 22:22:43;;;;;;;9.32;4.22;;;;;;;15.13;43.86;102330.06;10293457;28;20059;-75
2023/06/11 22:27:45;;;;;;;9.80;4.47;;;;;;;14.67;43.95;102333.44;10274301;28;20465;-75
2023/06/11 22:32:48;;;;;;;9.35;3.95;;;;;;;14.67;45.97;102338.97;10278771;29;20047;-75
2023/06/11 22:37:50;;;;;;;12.27;6.18;;;;;;;14.82;47.24;102331.84;10281213;29;20044;-75
2023/06/11 22:42:53;;;;;;;9.75;4.63;;;;;;;14.62;47.10;102341.69;10268485;28;20051;-75
2023/06/11 22:47:55;;;;;;;8.82;5.88;;;;;;;14.51;47.84;102333.59;10281469;29;20051;-74
2023/06/11 22:52:59;;;;;;;11.55;5.60;;;;;;;14.18;47.91;102339.13;10281585;29;20418;-73
2023/06/11 22:58:01;;;;;;;7.18;4.47;;;;;;;13.91;48.30;102340.28;10292441;28;20058;-74
2023/06/11 23:03:05;;;;;;;5.28;3.15;;;;;;;13.84;47.54;102340.47;10294718;29;20055;-74
2023/06/11 23:08:07;;;;;;;6.90;3.13;;;;;;;13.69;45.78;102327.38;10284059;28;20641;-75
2023/06/11 23:13:09;;;;;;;6.35;2.60;;;;;;;13.68;45.72;102330.38;10278119;29;20046;-75